sensor_id;sensor_type;location;lat;lon;timestamp;P1;durP1;ratioP1;P2;durP2;ratioP2
30466;SDS011;17258;52.560;13.046;2022-12-04T00:09:36;28.77;;;19.33;;
30466;SDS011;17258;52.560;13.046;2022-12-04T00:19:36;21.80;;;19.47;;
30466;SDS011;17258;52.560;13.046;2022-12-04T00:29:37;33.77;;;24.23;;
30466;SDS011;17258;52.560;13.046;2022-12-04T00:39:37;27.83;;;20.73;;
30466;SDS011;17258;52.560;13.046;2022-12-04T00:49:38;27.87;;;19.40;;
30466;SDS011;17258;52.560;13.046;2022-12-04T00:59:39;28.60;;;19.87;;
30466;SDS011;17258;52.560;13.046;2022-12-04T01:09:39;27.07;;;20.40;;
30466;SDS011;17258;52.560;13.046;2022-12-04T01:19:40;32.25;;;21.73;;
30466;SDS011;17258;52.560;13.046;2022-12-04T01:29:41;26.53;;;19.37;;
30466;SDS011;17258;52.560;13.046;2022-12-04T01:39:41;26.93;;;20.50;;
30466;SDS011;17258;52.560;13.046;2022-12-04T01:49:43;25.53;;;21.33;;
30466;SDS011;17258;52.560;13.046;2022-12-04T01:59:48;25.10;;;20.98;;
30466;SDS011;17258;52.560;13.046;2022-12-04T02:09:56;27.95;;;22.23;;
30466;SDS011;17258;52.560;13.046;2022-12-04T02:20:11;35.78;;;23.95;;
30466;SDS011;17258;52.560;13.046;2022-12-04T02:30:24;32.88;;;23.77;;
30466;SDS011;17258;52.560;13.046;2022-12-04T02:40:29;35.03;;;21.75;;
30466;SDS011;17258;52.560;13.046;2022-12-04T02:50:53;35.42;;;23.73;;
30466;SDS011;17258;52.560;13.046;2022-12-04T03:00:59;37.03;;;25.75;;
30466;SDS011;17258;52.560;13.046;2022-12-04T03:11:02;28.92;;;21.23;;
30466;SDS011;17258;52.560;13.046;2022-12-04T03:21:05;34.85;;;24.10;;
30466;SDS011;17258;52.560;13.046;2022-12-04T03:31:10;25.77;;;22.37;;
30466;SDS011;17258;52.560;13.046;2022-12-04T03:41:12;27.40;;;21.85;;
30466;SDS011;17258;52.560;13.046;2022-12-04T03:51:28;48.15;;;26.25;;
30466;SDS011;17258;52.560;13.046;2022-12-04T04:01:44;31.67;;;23.52;;
30466;SDS011;17258;52.560;13.046;2022-12-04T04:11:49;37.60;;;23.92;;
30466;SDS011;17258;52.560;13.046;2022-12-04T04:21:57;31.42;;;21.42;;
30466;SDS011;17258;52.560;13.046;2022-12-04T04:42:57;39.85;;;26.73;;
30466;SDS011;17258;52.560;13.046;2022-12-04T04:53:08;28.05;;;21.38;;
30466;SDS011;17258;52.560;13.046;2022-12-04T05:03:14;35.20;;;25.97;;
30466;SDS011;17258;52.560;13.046;2022-12-04T05:13:15;47.73;;;26.97;;
30466;SDS011;17258;52.560;13.046;2022-12-04T05:23:16;35.70;;;23.98;;
30466;SDS011;17258;52.560;13.046;2022-12-04T05:33:17;37.47;;;22.85;;
30466;SDS011;17258;52.560;13.046;2022-12-04T05:43:18;30.23;;;22.53;;
30466;SDS011;17258;52.560;13.046;2022-12-04T05:53:19;32.22;;;23.48;;
30466;SDS011;17258;52.560;13.046;2022-12-04T06:03:20;36.83;;;23.67;;
30466;SDS011;17258;52.560;13.046;2022-12-04T06:13:21;45.50;;;25.92;;
30466;SDS011;17258;52.560;13.046;2022-12-04T06:23:22;32.63;;;22.97;;
30466;SDS011;17258;52.560;13.046;2022-12-04T06:33:22;32.17;;;21.60;;
30466;SDS011;17258;52.560;13.046;2022-12-04T06:43:23;35.33;;;24.97;;
30466;SDS011;17258;52.560;13.046;2022-12-04T06:53:30;41.00;;;24.13;;
30466;SDS011;17258;52.560;13.046;2022-12-04T07:03:32;28.40;;;21.63;;
30466;SDS011;17258;52.560;13.046;2022-12-04T07:13:33;30.05;;;20.35;;
30466;SDS011;17258;52.560;13.046;2022-12-04T07:23:34;31.08;;;22.67;;
30466;SDS011;17258;52.560;13.046;2022-12-04T07:33:35;25.55;;;21.00;;
30466;SDS011;17258;52.560;13.046;2022-12-04T07:43:36;30.80;;;20.45;;
30466;SDS011;17258;52.560;13.046;2022-12-04T07:53:38;38.38;;;24.65;;
30466;SDS011;17258;52.560;13.046;2022-12-04T08:03:39;35.47;;;23.08;;
30466;SDS011;17258;52.560;13.046;2022-12-04T08:13:42;43.65;;;25.42;;
30466;SDS011;17258;52.560;13.046;2022-12-04T08:23:43;32.30;;;24.45;;
30466;SDS011;17258;52.560;13.046;2022-12-04T08:33:44;34.28;;;23.73;;
30466;SDS011;17258;52.560;13.046;2022-12-04T08:43:46;38.38;;;24.10;;
30466;SDS011;17258;52.560;13.046;2022-12-04T08:53:47;37.40;;;25.30;;
30466;SDS011;17258;52.560;13.046;2022-12-04T09:03:52;35.53;;;22.08;;
30466;SDS011;17258;52.560;13.046;2022-12-04T09:13:53;32.05;;;21.67;;
30466;SDS011;17258;52.560;13.046;2022-12-04T09:23:54;30.33;;;20.40;;
30466;SDS011;17258;52.560;13.046;2022-12-04T09:33:57;30.73;;;21.90;;
30466;SDS011;17258;52.560;13.046;2022-12-04T09:44:05;28.02;;;19.90;;
30466;SDS011;17258;52.560;13.046;2022-12-04T09:54:16;22.90;;;17.88;;
30466;SDS011;17258;52.560;13.046;2022-12-04T10:04:23;32.97;;;22.13;;
30466;SDS011;17258;52.560;13.046;2022-12-04T10:25:16;29.63;;;20.52;;
30466;SDS011;17258;52.560;13.046;2022-12-04T10:35:21;27.88;;;20.00;;
30466;SDS011;17258;52.560;13.046;2022-12-04T10:45:25;29.42;;;22.50;;
30466;SDS011;17258;52.560;13.046;2022-12-04T10:55:30;31.03;;;21.90;;
30466;SDS011;17258;52.560;13.046;2022-12-04T11:05:34;29.67;;;19.52;;
30466;SDS011;17258;52.560;13.046;2022-12-04T11:15:49;30.88;;;21.25;;
30466;SDS011;17258;52.560;13.046;2022-12-04T11:25:54;25.30;;;20.27;;
30466;SDS011;17258;52.560;13.046;2022-12-04T11:35:58;27.98;;;18.58;;
30466;SDS011;17258;52.560;13.046;2022-12-04T11:46:05;30.38;;;20.13;;
30466;SDS011;17258;52.560;13.046;2022-12-04T11:56:16;26.85;;;20.77;;
30466;SDS011;17258;52.560;13.046;2022-12-04T12:06:27;34.58;;;19.70;;
30466;SDS011;17258;52.560;13.046;2022-12-04T12:16:58;27.13;;;18.50;;
30466;SDS011;17258;52.560;13.046;2022-12-04T12:27:44;26.42;;;19.05;;
30466;SDS011;17258;52.560;13.046;2022-12-04T12:38:02;29.85;;;19.23;;
30466;SDS011;17258;52.560;13.046;2022-12-04T12:48:15;27.83;;;19.05;;
30466;SDS011;17258;52.560;13.046;2022-12-04T13:09:08;29.63;;;19.27;;
30466;SDS011;17258;52.560;13.046;2022-12-04T13:19:30;28.65;;;18.83;;
30466;SDS011;17258;52.560;13.046;2022-12-04T13:29:41;29.17;;;18.77;;
30466;SDS011;17258;52.560;13.046;2022-12-04T13:40:26;29.83;;;18.90;;
30466;SDS011;17258;52.560;13.046;2022-12-04T13:50:42;27.63;;;19.80;;
30466;SDS011;17258;52.560;13.046;2022-12-04T14:00:43;28.67;;;20.63;;
30466;SDS011;17258;52.560;13.046;2022-12-04T14:10:44;27.25;;;17.13;;
30466;SDS011;17258;52.560;13.046;2022-12-04T14:21:04;27.92;;;21.48;;
30466;SDS011;17258;52.560;13.046;2022-12-04T14:31:12;30.53;;;18.73;;
30466;SDS011;17258;52.560;13.046;2022-12-04T14:41:22;26.73;;;19.63;;
30466;SDS011;17258;52.560;13.046;2022-12-04T14:51:42;34.83;;;21.93;;
30466;SDS011;17258;52.560;13.046;2022-12-04T15:01:50;34.08;;;23.05;;
30466;SDS011;17258;52.560;13.046;2022-12-04T15:11:54;38.55;;;20.33;;
30466;SDS011;17258;52.560;13.046;2022-12-04T15:22:26;29.38;;;18.88;;
30466;SDS011;17258;52.560;13.046;2022-12-04T15:32:27;28.70;;;20.15;;
30466;SDS011;17258;52.560;13.046;2022-12-04T15:42:31;30.35;;;18.83;;
30466;SDS011;17258;52.560;13.046;2022-12-04T15:52:31;35.40;;;21.63;;
30466;SDS011;17258;52.560;13.046;2022-12-04T16:02:38;34.30;;;19.17;;
30466;SDS011;17258;52.560;13.046;2022-12-04T16:12:50;30.70;;;19.92;;
30466;SDS011;17258;52.560;13.046;2022-12-04T16:23:01;28.25;;;19.45;;
30466;SDS011;17258;52.560;13.046;2022-12-04T16:33:02;33.70;;;22.05;;
30466;SDS011;17258;52.560;13.046;2022-12-04T16:43:03;37.20;;;22.10;;
30466;SDS011;17258;52.560;13.046;2022-12-04T16:53:04;37.53;;;22.43;;
30466;SDS011;17258;52.560;13.046;2022-12-04T17:03:04;29.25;;;19.48;;
30466;SDS011;17258;52.560;13.046;2022-12-04T17:13:05;30.23;;;21.13;;
30466;SDS011;17258;52.560;13.046;2022-12-04T17:23:06;33.57;;;19.83;;
30466;SDS011;17258;52.560;13.046;2022-12-04T17:33:06;45.20;;;22.25;;
30466;SDS011;17258;52.560;13.046;2022-12-04T17:43:07;38.07;;;20.23;;
30466;SDS011;17258;52.560;13.046;2022-12-04T17:53:08;42.75;;;24.15;;
30466;SDS011;17258;52.560;13.046;2022-12-04T18:03:08;30.37;;;18.93;;
30466;SDS011;17258;52.560;13.046;2022-12-04T18:13:09;40.67;;;22.57;;
30466;SDS011;17258;52.560;13.046;2022-12-04T18:23:10;31.75;;;20.17;;
30466;SDS011;17258;52.560;13.046;2022-12-04T18:33:10;34.83;;;19.10;;
30466;SDS011;17258;52.560;13.046;2022-12-04T18:43:11;38.43;;;18.93;;
30466;SDS011;17258;52.560;13.046;2022-12-04T18:53:14;28.88;;;20.13;;
30466;SDS011;17258;52.560;13.046;2022-12-04T19:03:17;26.25;;;18.17;;
30466;SDS011;17258;52.560;13.046;2022-12-04T19:13:17;35.70;;;19.97;;
30466;SDS011;17258;52.560;13.046;2022-12-04T19:23:18;31.60;;;18.83;;
30466;SDS011;17258;52.560;13.046;2022-12-04T19:33:20;35.80;;;19.27;;
30466;SDS011;17258;52.560;13.046;2022-12-04T19:43:22;40.80;;;20.55;;
30466;SDS011;17258;52.560;13.046;2022-12-04T19:53:22;24.63;;;18.30;;
30466;SDS011;17258;52.560;13.046;2022-12-04T20:03:23;28.67;;;19.40;;
30466;SDS011;17258;52.560;13.046;2022-12-04T20:13:24;24.05;;;18.35;;
30466;SDS011;17258;52.560;13.046;2022-12-04T20:23:25;25.53;;;18.77;;
30466;SDS011;17258;52.560;13.046;2022-12-04T20:33:27;27.45;;;17.58;;
30466;SDS011;17258;52.560;13.046;2022-12-04T20:43:27;23.10;;;18.27;;
30466;SDS011;17258;52.560;13.046;2022-12-04T20:53:28;28.00;;;18.43;;
30466;SDS011;17258;52.560;13.046;2022-12-04T21:03:28;33.40;;;19.33;;
30466;SDS011;17258;52.560;13.046;2022-12-04T21:13:29;25.20;;;17.00;;
30466;SDS011;17258;52.560;13.046;2022-12-04T21:23:48;26.95;;;18.08;;
30466;SDS011;17258;52.560;13.046;2022-12-04T21:33:49;23.40;;;16.60;;
30466;SDS011;17258;52.560;13.046;2022-12-04T21:43:50;26.23;;;19.23;;
30466;SDS011;17258;52.560;13.046;2022-12-04T21:53:51;25.60;;;17.63;;
30466;SDS011;17258;52.560;13.046;2022-12-04T22:03:51;21.45;;;16.85;;
30466;SDS011;17258;52.560;13.046;2022-12-04T22:13:54;26.45;;;17.92;;
30466;SDS011;17258;52.560;13.046;2022-12-04T22:23:55;32.47;;;16.60;;
30466;SDS011;17258;52.560;13.046;2022-12-04T22:34:00;29.30;;;18.73;;
30466;SDS011;17258;52.560;13.046;2022-12-04T22:44:01;20.10;;;15.98;;
30466;SDS011;17258;52.560;13.046;2022-12-04T22:54:02;26.33;;;17.17;;
30466;SDS011;17258;52.560;13.046;2022-12-04T23:04:04;26.02;;;18.50;;
30466;SDS011;17258;52.560;13.046;2022-12-04T23:14:06;31.77;;;21.33;;
30466;SDS011;17258;52.560;13.046;2022-12-04T23:24:10;33.20;;;19.83;;
30466;SDS011;17258;52.560;13.046;2022-12-04T23:34:11;23.25;;;17.17;;
30466;SDS011;17258;52.560;13.046;2022-12-04T23:44:12;25.90;;;17.20;;
30466;SDS011;17258;52.560;13.046;2022-12-04T23:54:12;20.70;;;15.70;;
